Latest Weather Observations for Douglas River

IDD60801

Issued at 7:01 am CST Saturday 18 August 2018 (issued every 10 minutes, with the page automatically refreshed every 10 minutes)

About weather observations | Map of weather stations | Latest weather observations for NT | Other Formats
Station Details ID: 014901 Name: DOUGLAS RIVER RESEARCH FARM Lat: -13.83 Lon: 131.19 Height: 42.8 m
Data from the previous 72 hours. | See also: Recent months at Douglas River
Date/Time
CST
Temp
°C
App
Temp
°C
Dew
Point
°C
Rel
Hum
%
Delta-T
°C
Wind Press
QNH
hPa
Press
MSL
hPa
Rain since
9am
mm
Dir  Spd
km/h
Gust
km/h
Spd
kts
Gust
kts
18/07:00am 16.1 17.3 15.0 93 0.6 ENE 2 7 1 4 1014.6 1014.4 0.0
18/06:30am 16.7 17.3 15.7 94 0.6 NE 7 13 4 7 1014.2 1014.0 0.0
18/06:00am 17.0 19.1 16.2 95 0.5 CALM 0 0 0 0 1013.6 1013.4 0.0
18/05:30am 17.2 19.4 16.4 95 0.5 CALM 0 0 0 0 1013.5 1013.3 0.0
18/05:00am 16.8 17.7 16.2 96 0.4 ESE 6 11 3 6 1013.4 1013.2 0.0
18/04:30am 16.8 18.7 15.8 94 0.6 CALM 0 0 0 0 1012.8 1012.6 0.0
18/04:00am 16.5 18.4 15.7 95 0.5 CALM 0 0 0 0 1012.9 1012.7 0.0
18/03:30am 16.1 17.3 14.8 92 0.7 E 2 7 1 4 1012.9 1012.7 0.0
18/03:00am 16.4 18.1 15.1 92 0.8 CALM 0 0 0 0 1013.0 1012.8 0.0
18/02:30am 16.8 18.5 15.2 90 0.9 CALM 0 0 0 0 1013.0 1012.8 0.0
18/02:00am 18.2 19.1 16.0 87 1.3 NNW 6 7 3 4 1013.2 1013.0 0.0
18/01:30am 20.3 21.9 18.2 88 1.3 NNW 7 9 4 5 1013.3 1013.1 0.0
18/01:00am 20.6 22.0 17.8 84 1.7 NNW 7 9 4 5 1013.3 1013.1 0.0
18/12:30am 21.3 22.4 17.9 81 2.1 NNW 9 11 5 6 1013.5 1013.3 0.0
18/12:00am 21.7 23.1 17.9 79 2.4 NNW 7 11 4 6 1013.7 1013.5 0.0
 
Date/Time
CST
Temp
°C
App
Temp
°C
Dew
Point
°C
Rel
Hum
%
Delta-T
°C
Wind Press
QNH
hPa
Press
MSL
hPa
Rain since
9am
mm
Dir  Spd
km/h
Gust
km/h
Spd
kts
Gust
kts
17/11:30pm 21.3 22.9 16.0 72 3.2 NNW 2 7 1 4 1013.5 1013.3 0.0
17/11:00pm 22.7 23.6 16.7 69 3.7 NW 7 11 4 6 1013.5 1013.3 0.0
17/10:30pm 23.2 23.2 15.3 61 4.7 N 9 19 5 10 1013.4 1013.2 0.0
17/10:00pm 23.3 23.4 12.6 51 6.1 E 4 7 2 4 1012.7 1012.5 0.0
17/09:30pm 22.2 23.6 14.3 61 4.6 CALM 0 0 0 0 1012.5 1012.3 0.0
17/09:00pm 22.2 23.1 13.0 56 5.3 CALM 0 0 0 0 1012.3 1012.1 0.0
17/08:30pm 22.7 23.7 13.2 55 5.5 CALM 0 4 0 2 1011.9 1011.7 0.0
17/08:00pm 22.8 23.0 13.0 54 5.6 S 4 7 2 4 1011.5 1011.3 0.0
17/07:30pm 25.1 25.2 11.6 42 7.7 E 2 7 1 4 1011.0 1010.8 0.0
17/07:00pm 26.7 26.6 10.8 37 9.0 S 2 7 1 4 1010.6 1010.4 0.0
17/06:30pm 28.5 27.8 12.0 36 9.6 S 7 9 4 5 1010.2 1010.0 0.0
17/06:00pm 30.7 28.7 10.1 28 11.7 S 11 15 6 8 1009.8 1009.6 0.0
17/05:30pm 32.0 29.3 8.9 24 13.0 SSE 13 17 7 9 1009.6 1009.4 0.0
17/05:00pm 32.7 31.5 9.5 24 13.2 SSW 6 11 3 6 1009.3 1009.1 0.0
17/04:30pm 32.2 29.7 9.7 25 12.8 SSW 13 15 7 8 1009.1 1008.9 0.0
17/04:00pm 32.8 30.9 8.9 23 13.5 S 9 15 5 8 1009.2 1009.0 0.0
17/03:30pm 32.8 31.4 9.6 24 13.2 ENE 7 11 4 6 1009.2 1009.0 0.0
17/03:00pm 31.9 28.9 9.4 25 12.7 ESE 15 24 8 13 1009.3 1009.1 0.0
17/02:30pm 33.7 31.7 10.3 24 13.6 SE 11 24 6 13 1009.6 1009.4 0.0
17/02:00pm 31.4 29.2 10.7 28 11.9 S 13 20 7 11 1010.1 1009.9 0.0
17/01:30pm 31.6 29.6 10.3 27 12.2 SSW 11 15 6 8 1010.6 1010.4 0.0
17/01:00pm 31.3 28.9 10.1 27 12.1 SE 13 24 7 13 1011.1 1010.9 0.0
17/12:30pm 31.6 29.7 11.9 30 11.6 ESE 13 24 7 13 1011.6 1011.4 0.0
17/12:00pm 30.6 28.9 12.5 33 10.7 E 13 20 7 11 1012.1 1011.9 0.0
17/11:30am 30.3 30.6 16.0 42 8.9 NNE 9 15 5 8 1012.7 1012.5 0.0
17/11:00am 29.0 29.4 16.2 46 8.0 NE 9 13 5 7 1013.3 1013.1 0.0
17/10:30am 28.2 29.0 17.4 52 6.8 N 9 15 5 8 1013.8 1013.6 0.0
17/10:00am 27.4 28.8 17.8 55 6.1 NNE 7 13 4 7 1013.9 1013.7 0.0
17/09:30am 26.9 28.5 18.2 59 5.5 NNE 7 15 4 8 1014.0 1013.8 0.0
17/09:00am 23.7 25.4 18.1 71 3.5 N 6 11 3 6 1013.9 1013.7 0.0
17/08:30am 20.7 22.2 17.5 82 2.0 NNE 6 7 3 4 1013.7 1013.5 0.0
17/08:00am 17.7 19.7 16.0 90 1.0 CALM 0 0 0 0 1013.4 1013.2 0.0
17/07:30am 16.0 17.6 15.0 94 0.6 CALM 0 0 0 0 1013.2 1013.0 0.0
17/07:00am 15.7 16.5 14.7 94 0.6 NE 4 7 2 4 1012.9 1012.7 0.0
17/06:30am 15.0 15.1 13.9 93 0.6 NE 6 11 3 6 1012.6 1012.4 0.0
17/06:00am 15.7 16.0 14.9 95 0.5 NE 7 9 4 5 1012.3 1012.1 0.0
17/05:30am 15.4 17.0 14.8 96 0.3 CALM 0 6 0 3 1012.1 1011.9 0.0
17/05:00am 15.6 17.2 14.8 95 0.5 CALM 0 0 0 0 1012.0 1011.8 0.0
17/04:30am 15.7 17.2 14.6 93 0.6 CALM 0 0 0 0 1011.9 1011.7 0.0
17/04:00am 16.0 17.2 14.9 93 0.6 NE 2 6 1 3 1012.1 1011.9 0.0
17/03:30am 16.3 17.0 15.7 96 0.4 NE 6 9 3 5 1012.3 1012.1 0.0
17/03:00am 15.8 17.1 14.2 90 0.9 CALM 0 0 0 0 1012.1 1011.9 0.0
17/02:30am 16.8 18.5 15.3 91 0.9 CALM 0 0 0 0 1012.3 1012.1 0.0
17/02:00am 17.5 17.6 13.8 79 2.1 NNW 6 7 3 4 1012.3 1012.1 0.0
17/01:30am 20.0 21.0 16.8 82 1.9 NNW 7 11 4 6 1012.3 1012.1 0.0
17/01:00am 20.0 20.9 16.6 81 2.1 N 7 11 4 6 1012.6 1012.4 0.0
17/12:30am 20.8 21.1 16.0 74 2.9 NNW 9 11 5 6 1012.6 1012.4 0.0
17/12:00am 21.0 21.5 15.1 69 3.5 NNW 6 7 3 4 1012.8 1012.6 0.0
 
Date/Time
CST
Temp
°C
App
Temp
°C
Dew
Point
°C
Rel
Hum
%
Delta-T
°C
Wind Press
QNH
hPa
Press
MSL
hPa
Rain since
9am
mm
Dir  Spd
km/h
Gust
km/h
Spd
kts
Gust
kts
16/11:30pm 21.7 22.3 15.8 69 3.5 N 7 9 4 5 1012.8 1012.6 0.0
16/11:00pm 21.4 23.0 15.0 67 3.8 CALM 0 6 0 3 1012.6 1012.4 0.0
16/10:30pm 23.4 24.0 15.7 62 4.6 NNW 7 11 4 6 1012.4 1012.2 0.0
16/10:00pm 22.9 23.5 13.1 54 5.7 NE 2 15 1 8 1012.1 1011.9 0.0
16/09:30pm 23.3 24.9 14.8 59 5.1 CALM 0 0 0 0 1011.8 1011.6 0.0
16/09:00pm 23.9 25.3 14.3 55 5.7 CALM 0 0 0 0 1011.6 1011.4 0.0
16/08:30pm 24.7 24.6 13.3 49 6.7 E 6 9 3 5 1011.3 1011.1 0.0
16/08:00pm 25.1 26.0 13.0 47 7.0 CALM 0 0 0 0 1010.9 1010.7 0.0
16/07:30pm 26.0 25.3 11.4 40 8.3 SSW 6 7 3 4 1010.6 1010.4 0.0
16/07:00pm 26.5 25.1 11.0 38 8.8 SSW 9 9 5 5 1010.3 1010.1 0.0
16/06:30pm 28.0 27.2 12.8 39 8.9 S 9 11 5 6 1010.0 1009.8 0.0
16/06:00pm 29.8 28.0 10.9 31 10.9 S 11 15 6 8 1009.7 1009.5 0.0
16/05:30pm 31.4 28.3 10.2 27 12.1 S 17 20 9 11 1009.3 1009.1 0.0
16/05:00pm 32.0 29.6 10.1 26 12.5 SSE 13 20 7 11 1009.2 1009.0 0.0
16/04:30pm 33.0 31.8 10.4 25 13.1 SE 7 20 4 11 1009.0 1008.8 0.0
16/04:00pm 32.5 30.8 9.9 25 12.9 SSW 9 15 5 8 1009.1 1008.9 0.0
16/03:30pm 32.0 30.0 10.1 26 12.6 S 11 20 6 11 1009.1 1008.9 0.0
16/03:00pm 32.9 30.8 9.7 24 13.3 SSE 11 19 6 10 1009.4 1009.2 0.0
16/02:30pm 33.0 31.1 9.1 23 13.5 NNW 9 15 5 8 1010.0 1009.8 0.0
16/02:00pm 32.2 30.3 9.1 24 13.0 ESE 9 17 5 9 1010.6 1010.4 0.0
16/01:30pm 30.4 28.7 9.8 28 11.7 E 9 22 5 12 1011.2 1011.0 0.0
16/01:00pm 32.1 30.7 10.8 27 12.3 E 9 15 5 8 1011.6 1011.4 0.0
16/12:30pm 30.8 29.5 11.2 30 11.4 NE 9 17 5 9 1012.1 1011.9 0.0
16/12:00pm 30.9 29.8 11.8 31 11.2 ENE 9 19 5 10 1012.8 1012.6 0.0
16/11:30am 30.6 30.9 15.1 39 9.5 E 7 13 4 7 1013.4 1013.2 0.0
16/11:00am 28.6 29.3 16.2 47 7.7 ENE 7 13 4 7 1014.0 1013.8 0.0
16/10:30am 28.1 28.2 16.4 49 7.3 E 11 17 6 9 1014.5 1014.3 0.0
16/10:00am 26.8 28.6 17.3 56 6.0 SE 4 7 2 4 1014.8 1014.6 0.0
16/09:30am 24.7 25.0 14.5 53 6.1 S 6 9 3 5 1014.9 1014.7 0.0
16/09:00am 22.8 23.3 15.1 62 4.6 ESE 6 9 3 5 1014.8 1014.6 -
16/08:30am 19.6 20.6 14.4 72 3.0 E 2 6 1 3 1014.6 1014.4 -
16/08:00am 16.1 17.5 14.3 89 1.0 CALM 0 0 0 0 1014.4 1014.2 -
16/07:30am 13.3 13.8 11.7 90 0.9 CALM 0 0 0 0 1014.2 1014.0 -
16/07:00am 12.8 13.2 11.2 90 0.8 CALM 0 0 0 0 1014.0 1013.8 -
16/06:30am 13.4 14.0 11.8 90 0.9 CALM 0 0 0 0 1013.6 1013.4 -
16/06:00am 14.3 14.4 11.6 84 1.4 NE 2 6 1 3 1013.6 1013.4 -
16/05:30am 14.6 14.1 12.1 85 1.4 NE 6 11 3 6 1013.4 1013.2 -
16/05:00am 15.4 14.9 12.7 84 1.5 NE 7 9 4 5 1013.3 1013.1 -
16/04:30am 15.1 15.1 12.4 84 1.5 E 4 9 2 5 1013.2 1013.0 -
16/04:00am 14.8 15.5 12.1 84 1.5 CALM 0 6 0 3 1013.1 1012.9 -
16/03:30am 15.5 16.3 12.4 82 1.7 CALM 0 0 0 0 1013.0 1012.8 -
16/03:00am 16.4 17.3 12.8 79 2.0 CALM 0 0 0 0 1013.2 1013.0 0.0
16/02:30am 16.7 17.0 11.0 69 3.1 CALM 0 0 0 0 1013.6 1013.4 -
16/02:00am 18.4 19.3 12.8 70 3.1 CALM 0 0 0 0 1013.8 1013.6 -
16/01:30am 18.5 19.2 12.3 67 3.4 CALM 0 0 0 0 1014.0 1013.8 -
16/01:00am 18.6 18.4 13.0 70 3.2 N 6 7 3 4 1014.2 1014.0 -
16/12:30am 18.0 17.8 13.1 73 2.8 N 6 7 3 4 1014.3 1014.1 -
16/12:00am 18.1 18.7 11.9 67 3.4 CALM 0 0 0 0 1014.3 1014.1 -
 
Date/Time
CST
Temp
°C
App
Temp
°C
Dew
Point
°C
Rel
Hum
%
Delta-T
°C
Wind Press
QNH
hPa
Press
MSL
hPa
Rain since
9am
mm
Dir  Spd
km/h
Gust
km/h
Spd
kts
Gust
kts
15/11:30pm 19.2 18.9 11.3 60 4.3 NW 4 7 2 4 1014.2 1014.0 -
15/11:00pm 20.5 20.8 10.9 54 5.3 CALM 0 0 0 0 1014.3 1014.1 -
15/10:30pm 22.6 20.7 10.4 46 6.7 NNW 11 17 6 9 1014.2 1014.0 -
15/10:00pm 22.7 22.5 9.1 42 7.3 CALM 0 0 0 0 1014.0 1013.8 -
15/09:30pm 22.8 21.1 8.5 40 7.6 ESE 7 9 4 5 1013.8 1013.6 -
15/09:00pm 24.1 22.4 8.5 37 8.3 ESE 7 7 4 4 1013.5 1013.3 -
15/08:30pm 23.1 22.9 9.1 41 7.5 CALM 0 0 0 0 1013.3 1013.1 -
15/08:00pm 23.1 23.0 9.5 42 7.4 CALM 0 6 0 3 1013.0 1012.8 -
15/07:30pm 24.3 23.5 8.3 36 8.5 S 2 6 1 3 1012.5 1012.3 -
15/07:00pm 25.6 24.2 9.4 36 8.9 S 7 9 4 5 1012.3 1012.1 -
15/06:30pm 27.6 25.1 8.0 29 10.6 S 11 13 6 7 1012.1 1011.9 -
15/06:00pm 29.7 27.8 7.6 25 12.0 SSW 7 11 4 6 1012.0 1011.8 -
15/05:30pm 32.0 30.9 7.0 21 13.6 WNW 2 6 1 3 1011.7 1011.5 -
15/05:00pm 31.6 29.1 6.6 21 13.5 SSW 9 15 5 8 1011.6 1011.4 -
15/04:30pm 31.6 29.3 5.9 20 13.7 E 7 15 4 8 1011.7 1011.5 -
15/04:00pm 32.2 30.2 6.4 20 13.9 S 6 13 3 7 1011.7 1011.5 -
15/03:30pm 31.3 28.8 6.4 21 13.4 NE 9 15 5 8 1012.0 1011.8 -
15/02:30pm 31.4 29.5 6.5 21 13.4 WSW 6 7 3 4 1012.8 1012.6 -
15/02:00pm 31.4 28.1 6.5 21 13.4 SSE 13 19 7 10 1013.2 1013.0 -
15/01:30pm - - - - - - - - - - - - -
15/01:00pm - - - - - - - - - - - - -
15/12:30pm - - - - - - - - - - - - -
15/12:00pm - - - - - - - - - - - - -
15/11:30am - - - - - - - - - - - - -
15/11:00am - - - - - - - - - - - - -
15/10:30am - - - - - - - - - - - - -
15/10:00am - - - - - - - - - - - - -
15/09:30am 22.1 - 5.5 34 8.3 - - - - - 1017.5 1017.3 -
15/09:00am 19.5 - 5.2 39 7.0 - - - - - 1017.3 1017.1 -
15/08:30am - - - - - - - - - - - - -
15/08:00am - - - - - - - - - - - - -
15/07:30am 10.6 - 6.4 75 2.0 - - - - - 1016.5 1016.3 -

Other Formats:

Comma delimited format used in spreadsheet applications
http://www.bom.gov.au/fwo/IDD60801/IDD60801.94128.axf

JavaScript Object Notation format (JSON) in row-major order
http://www.bom.gov.au/fwo/IDD60801/IDD60801.94128.json